sensor_id;sensor_type;location;lat;lon;timestamp;P1;durP1;ratioP1;P2;durP2;ratioP2
66970;SDS011;53901;51.466;-2.588;2023-05-07T00:01:15;24.00;;;10.77;;
66970;SDS011;53901;51.466;-2.588;2023-05-07T00:03:41;29.83;;;10.35;;
66970;SDS011;53901;51.466;-2.588;2023-05-07T00:06:06;25.05;;;10.95;;
66970;SDS011;53901;51.466;-2.588;2023-05-07T00:08:32;31.98;;;11.70;;
66970;SDS011;53901;51.466;-2.588;2023-05-07T00:10:57;25.63;;;11.07;;
66970;SDS011;53901;51.466;-2.588;2023-05-07T00:13:22;28.75;;;10.48;;
66970;SDS011;53901;51.466;-2.588;2023-05-07T00:15:48;27.58;;;13.48;;
66970;SDS011;53901;51.466;-2.588;2023-05-07T00:18:13;27.15;;;11.80;;
66970;SDS011;53901;51.466;-2.588;2023-05-07T00:20:38;27.48;;;11.02;;
66970;SDS011;53901;51.466;-2.588;2023-05-07T00:23:04;25.83;;;11.95;;
66970;SDS011;53901;51.466;-2.588;2023-05-07T00:25:29;29.63;;;11.38;;
66970;SDS011;53901;51.466;-2.588;2023-05-07T00:27:55;27.17;;;10.82;;
66970;SDS011;53901;51.466;-2.588;2023-05-07T00:30:20;30.25;;;12.75;;
66970;SDS011;53901;51.466;-2.588;2023-05-07T00:32:46;24.75;;;11.43;;
66970;SDS011;53901;51.466;-2.588;2023-05-07T00:35:13;25.17;;;11.45;;
66970;SDS011;53901;51.466;-2.588;2023-05-07T00:37:39;32.65;;;12.23;;
66970;SDS011;53901;51.466;-2.588;2023-05-07T00:40:04;27.13;;;11.80;;
66970;SDS011;53901;51.466;-2.588;2023-05-07T00:42:32;24.13;;;11.90;;
66970;SDS011;53901;51.466;-2.588;2023-05-07T00:44:57;28.58;;;12.10;;
66970;SDS011;53901;51.466;-2.588;2023-05-07T00:47:23;26.30;;;11.82;;
66970;SDS011;53901;51.466;-2.588;2023-05-07T00:49:50;22.35;;;11.57;;
66970;SDS011;53901;51.466;-2.588;2023-05-07T00:52:16;26.60;;;12.35;;
66970;SDS011;53901;51.466;-2.588;2023-05-07T00:54:42;30.88;;;13.25;;
66970;SDS011;53901;51.466;-2.588;2023-05-07T00:57:08;25.67;;;11.80;;
66970;SDS011;53901;51.466;-2.588;2023-05-07T00:59:34;33.83;;;12.38;;
66970;SDS011;53901;51.466;-2.588;2023-05-07T01:02:00;26.17;;;12.45;;
66970;SDS011;53901;51.466;-2.588;2023-05-07T01:04:25;29.95;;;13.00;;
66970;SDS011;53901;51.466;-2.588;2023-05-07T01:06:51;27.40;;;12.85;;
66970;SDS011;53901;51.466;-2.588;2023-05-07T01:09:19;35.40;;;13.25;;
66970;SDS011;53901;51.466;-2.588;2023-05-07T01:11:45;36.83;;;14.10;;
66970;SDS011;53901;51.466;-2.588;2023-05-07T01:14:11;34.58;;;14.95;;
66970;SDS011;53901;51.466;-2.588;2023-05-07T01:16:37;32.05;;;13.73;;
66970;SDS011;53901;51.466;-2.588;2023-05-07T01:19:02;33.28;;;14.45;;
66970;SDS011;53901;51.466;-2.588;2023-05-07T01:21:28;34.42;;;13.57;;
66970;SDS011;53901;51.466;-2.588;2023-05-07T01:23:58;25.48;;;12.23;;
66970;SDS011;53901;51.466;-2.588;2023-05-07T01:26:23;30.27;;;12.75;;
66970;SDS011;53901;51.466;-2.588;2023-05-07T01:28:48;29.33;;;13.70;;
66970;SDS011;53901;51.466;-2.588;2023-05-07T01:31:14;28.80;;;13.27;;
66970;SDS011;53901;51.466;-2.588;2023-05-07T01:33:41;26.80;;;12.75;;
66970;SDS011;53901;51.466;-2.588;2023-05-07T01:36:09;31.55;;;13.90;;
66970;SDS011;53901;51.466;-2.588;2023-05-07T01:38:36;28.20;;;12.18;;
66970;SDS011;53901;51.466;-2.588;2023-05-07T01:41:01;26.50;;;12.80;;
66970;SDS011;53901;51.466;-2.588;2023-05-07T01:43:28;29.73;;;13.38;;
66970;SDS011;53901;51.466;-2.588;2023-05-07T01:45:53;32.05;;;13.50;;
66970;SDS011;53901;51.466;-2.588;2023-05-07T01:48:19;27.65;;;12.93;;
66970;SDS011;53901;51.466;-2.588;2023-05-07T01:50:45;29.70;;;12.73;;
66970;SDS011;53901;51.466;-2.588;2023-05-07T01:53:11;31.73;;;13.43;;
66970;SDS011;53901;51.466;-2.588;2023-05-07T01:55:36;25.98;;;13.52;;
66970;SDS011;53901;51.466;-2.588;2023-05-07T01:58:02;32.53;;;14.13;;
66970;SDS011;53901;51.466;-2.588;2023-05-07T02:00:27;30.83;;;14.35;;
66970;SDS011;53901;51.466;-2.588;2023-05-07T02:02:53;33.03;;;14.27;;
66970;SDS011;53901;51.466;-2.588;2023-05-07T02:05:19;27.23;;;13.25;;
66970;SDS011;53901;51.466;-2.588;2023-05-07T02:07:44;27.52;;;13.10;;
66970;SDS011;53901;51.466;-2.588;2023-05-07T02:10:10;27.05;;;13.20;;
66970;SDS011;53901;51.466;-2.588;2023-05-07T02:12:35;26.27;;;12.98;;
66970;SDS011;53901;51.466;-2.588;2023-05-07T02:15:01;27.25;;;13.20;;
66970;SDS011;53901;51.466;-2.588;2023-05-07T02:17:26;26.30;;;13.38;;
66970;SDS011;53901;51.466;-2.588;2023-05-07T02:19:52;34.47;;;14.43;;
66970;SDS011;53901;51.466;-2.588;2023-05-07T02:22:17;24.27;;;12.93;;
66970;SDS011;53901;51.466;-2.588;2023-05-07T02:24:43;26.83;;;12.88;;
66970;SDS011;53901;51.466;-2.588;2023-05-07T02:27:08;26.00;;;12.98;;
66970;SDS011;53901;51.466;-2.588;2023-05-07T02:29:33;26.50;;;13.07;;
66970;SDS011;53901;51.466;-2.588;2023-05-07T02:31:59;31.17;;;13.30;;
66970;SDS011;53901;51.466;-2.588;2023-05-07T02:34:24;26.30;;;12.73;;
66970;SDS011;53901;51.466;-2.588;2023-05-07T02:36:50;27.92;;;11.85;;
66970;SDS011;53901;51.466;-2.588;2023-05-07T02:39:16;33.17;;;13.38;;
66970;SDS011;53901;51.466;-2.588;2023-05-07T02:41:41;24.50;;;12.13;;
66970;SDS011;53901;51.466;-2.588;2023-05-07T02:44:07;32.58;;;13.65;;
66970;SDS011;53901;51.466;-2.588;2023-05-07T02:46:32;26.85;;;13.57;;
66970;SDS011;53901;51.466;-2.588;2023-05-07T02:48:58;27.90;;;13.48;;
66970;SDS011;53901;51.466;-2.588;2023-05-07T02:51:23;32.00;;;13.25;;
66970;SDS011;53901;51.466;-2.588;2023-05-07T02:53:49;27.48;;;13.05;;
66970;SDS011;53901;51.466;-2.588;2023-05-07T02:56:14;25.58;;;12.85;;
66970;SDS011;53901;51.466;-2.588;2023-05-07T02:58:40;38.72;;;13.98;;
66970;SDS011;53901;51.466;-2.588;2023-05-07T03:01:07;28.38;;;13.20;;
66970;SDS011;53901;51.466;-2.588;2023-05-07T03:03:32;29.27;;;14.27;;
66970;SDS011;53901;51.466;-2.588;2023-05-07T03:05:58;33.97;;;15.20;;
66970;SDS011;53901;51.466;-2.588;2023-05-07T03:08:23;32.00;;;14.82;;
66970;SDS011;53901;51.466;-2.588;2023-05-07T03:10:49;33.50;;;14.77;;
66970;SDS011;53901;51.466;-2.588;2023-05-07T03:13:14;34.53;;;15.48;;
66970;SDS011;53901;51.466;-2.588;2023-05-07T03:15:40;36.88;;;14.95;;
66970;SDS011;53901;51.466;-2.588;2023-05-07T03:18:05;33.15;;;15.02;;
66970;SDS011;53901;51.466;-2.588;2023-05-07T03:20:31;31.10;;;15.50;;
66970;SDS011;53901;51.466;-2.588;2023-05-07T03:22:56;33.10;;;15.57;;
66970;SDS011;53901;51.466;-2.588;2023-05-07T03:25:22;33.28;;;14.85;;
66970;SDS011;53901;51.466;-2.588;2023-05-07T03:27:47;30.23;;;15.55;;
66970;SDS011;53901;51.466;-2.588;2023-05-07T03:30:12;34.67;;;15.82;;
66970;SDS011;53901;51.466;-2.588;2023-05-07T03:32:38;32.58;;;14.80;;
66970;SDS011;53901;51.466;-2.588;2023-05-07T03:35:03;35.83;;;15.77;;
66970;SDS011;53901;51.466;-2.588;2023-05-07T03:37:29;32.92;;;15.07;;
66970;SDS011;53901;51.466;-2.588;2023-05-07T03:39:55;32.53;;;15.05;;
66970;SDS011;53901;51.466;-2.588;2023-05-07T03:42:20;34.25;;;15.63;;
66970;SDS011;53901;51.466;-2.588;2023-05-07T03:44:45;38.72;;;17.40;;
66970;SDS011;53901;51.466;-2.588;2023-05-07T03:47:11;34.33;;;16.40;;
66970;SDS011;53901;51.466;-2.588;2023-05-07T03:49:38;45.15;;;19.33;;
66970;SDS011;53901;51.466;-2.588;2023-05-07T03:52:03;41.38;;;17.58;;
66970;SDS011;53901;51.466;-2.588;2023-05-07T03:54:29;44.50;;;18.73;;
66970;SDS011;53901;51.466;-2.588;2023-05-07T03:56:55;43.97;;;19.25;;
66970;SDS011;53901;51.466;-2.588;2023-05-07T03:59:20;44.45;;;19.50;;
66970;SDS011;53901;51.466;-2.588;2023-05-07T04:01:46;54.28;;;19.55;;
66970;SDS011;53901;51.466;-2.588;2023-05-07T04:04:11;45.60;;;19.67;;
66970;SDS011;53901;51.466;-2.588;2023-05-07T04:06:37;47.15;;;20.05;;
66970;SDS011;53901;51.466;-2.588;2023-05-07T04:09:02;50.97;;;20.35;;
66970;SDS011;53901;51.466;-2.588;2023-05-07T04:11:28;43.50;;;19.88;;
66970;SDS011;53901;51.466;-2.588;2023-05-07T04:13:53;42.65;;;19.33;;
66970;SDS011;53901;51.466;-2.588;2023-05-07T04:16:19;44.25;;;19.63;;
66970;SDS011;53901;51.466;-2.588;2023-05-07T04:18:44;45.63;;;19.70;;
66970;SDS011;53901;51.466;-2.588;2023-05-07T04:21:16;47.78;;;19.60;;
66970;SDS011;53901;51.466;-2.588;2023-05-07T04:23:42;45.03;;;20.00;;
66970;SDS011;53901;51.466;-2.588;2023-05-07T04:26:08;43.55;;;19.80;;
66970;SDS011;53901;51.466;-2.588;2023-05-07T04:28:34;40.88;;;19.42;;
66970;SDS011;53901;51.466;-2.588;2023-05-07T04:31:00;41.85;;;18.60;;
66970;SDS011;53901;51.466;-2.588;2023-05-07T04:33:25;41.17;;;18.10;;
66970;SDS011;53901;51.466;-2.588;2023-05-07T04:35:50;45.03;;;18.52;;
66970;SDS011;53901;51.466;-2.588;2023-05-07T04:38:16;42.08;;;18.73;;
66970;SDS011;53901;51.466;-2.588;2023-05-07T04:40:43;41.35;;;17.58;;
66970;SDS011;53901;51.466;-2.588;2023-05-07T04:43:09;40.50;;;18.70;;
66970;SDS011;53901;51.466;-2.588;2023-05-07T04:45:35;37.72;;;16.58;;
66970;SDS011;53901;51.466;-2.588;2023-05-07T04:48:01;34.15;;;16.35;;
66970;SDS011;53901;51.466;-2.588;2023-05-07T04:50:26;37.78;;;17.73;;
66970;SDS011;53901;51.466;-2.588;2023-05-07T04:52:52;38.42;;;17.45;;
66970;SDS011;53901;51.466;-2.588;2023-05-07T04:55:17;35.97;;;17.08;;
66970;SDS011;53901;51.466;-2.588;2023-05-07T04:57:43;40.78;;;18.08;;
66970;SDS011;53901;51.466;-2.588;2023-05-07T05:00:08;38.97;;;17.05;;
66970;SDS011;53901;51.466;-2.588;2023-05-07T05:02:34;36.38;;;15.75;;
66970;SDS011;53901;51.466;-2.588;2023-05-07T05:05:00;31.55;;;15.43;;
66970;SDS011;53901;51.466;-2.588;2023-05-07T05:07:27;32.72;;;15.57;;
66970;SDS011;53901;51.466;-2.588;2023-05-07T05:09:53;30.27;;;14.90;;
66970;SDS011;53901;51.466;-2.588;2023-05-07T05:12:18;30.38;;;14.73;;
66970;SDS011;53901;51.466;-2.588;2023-05-07T05:14:44;25.17;;;13.38;;
66970;SDS011;53901;51.466;-2.588;2023-05-07T05:17:09;34.65;;;14.88;;
66970;SDS011;53901;51.466;-2.588;2023-05-07T05:19:35;28.73;;;13.65;;
66970;SDS011;53901;51.466;-2.588;2023-05-07T05:22:00;27.67;;;13.30;;
66970;SDS011;53901;51.466;-2.588;2023-05-07T05:24:29;32.03;;;13.52;;
66970;SDS011;53901;51.466;-2.588;2023-05-07T05:26:55;29.23;;;12.75;;
66970;SDS011;53901;51.466;-2.588;2023-05-07T05:29:20;27.90;;;12.93;;
66970;SDS011;53901;51.466;-2.588;2023-05-07T05:31:45;27.85;;;13.25;;
66970;SDS011;53901;51.466;-2.588;2023-05-07T05:34:11;30.08;;;13.40;;
66970;SDS011;53901;51.466;-2.588;2023-05-07T05:36:36;27.05;;;12.70;;
66970;SDS011;53901;51.466;-2.588;2023-05-07T05:39:02;28.85;;;13.98;;
66970;SDS011;53901;51.466;-2.588;2023-05-07T05:41:27;35.30;;;13.75;;
66970;SDS011;53901;51.466;-2.588;2023-05-07T05:43:52;34.05;;;14.07;;
66970;SDS011;53901;51.466;-2.588;2023-05-07T05:46:18;32.60;;;14.40;;
66970;SDS011;53901;51.466;-2.588;2023-05-07T05:48:44;29.88;;;12.63;;
66970;SDS011;53901;51.466;-2.588;2023-05-07T05:51:09;26.70;;;12.75;;
66970;SDS011;53901;51.466;-2.588;2023-05-07T05:53:34;26.48;;;12.55;;
66970;SDS011;53901;51.466;-2.588;2023-05-07T05:56:00;27.23;;;12.23;;
66970;SDS011;53901;51.466;-2.588;2023-05-07T05:58:25;28.38;;;12.15;;
66970;SDS011;53901;51.466;-2.588;2023-05-07T06:00:51;27.52;;;13.02;;
66970;SDS011;53901;51.466;-2.588;2023-05-07T06:03:17;25.85;;;12.30;;
66970;SDS011;53901;51.466;-2.588;2023-05-07T06:05:42;27.67;;;12.68;;
66970;SDS011;53901;51.466;-2.588;2023-05-07T06:08:08;25.00;;;11.82;;
66970;SDS011;53901;51.466;-2.588;2023-05-07T06:10:33;25.67;;;11.23;;
66970;SDS011;53901;51.466;-2.588;2023-05-07T06:13:01;24.45;;;10.82;;
66970;SDS011;53901;51.466;-2.588;2023-05-07T06:15:26;28.38;;;11.10;;
66970;SDS011;53901;51.466;-2.588;2023-05-07T06:17:52;24.13;;;11.57;;
66970;SDS011;53901;51.466;-2.588;2023-05-07T06:20:17;21.42;;;10.15;;
66970;SDS011;53901;51.466;-2.588;2023-05-07T06:22:42;21.45;;;10.07;;
66970;SDS011;53901;51.466;-2.588;2023-05-07T06:25:08;22.55;;;8.88;;
66970;SDS011;53901;51.466;-2.588;2023-05-07T06:27:33;23.98;;;11.07;;
66970;SDS011;53901;51.466;-2.588;2023-05-07T06:29:59;26.63;;;10.85;;
66970;SDS011;53901;51.466;-2.588;2023-05-07T06:32:25;23.77;;;9.48;;
66970;SDS011;53901;51.466;-2.588;2023-05-07T06:34:50;22.02;;;11.00;;
66970;SDS011;53901;51.466;-2.588;2023-05-07T06:37:15;25.92;;;10.18;;
66970;SDS011;53901;51.466;-2.588;2023-05-07T06:39:41;22.27;;;9.75;;
66970;SDS011;53901;51.466;-2.588;2023-05-07T06:42:06;23.08;;;9.73;;
66970;SDS011;53901;51.466;-2.588;2023-05-07T06:44:32;18.27;;;9.38;;
66970;SDS011;53901;51.466;-2.588;2023-05-07T06:46:57;21.50;;;9.63;;
66970;SDS011;53901;51.466;-2.588;2023-05-07T06:49:22;23.98;;;9.20;;
66970;SDS011;53901;51.466;-2.588;2023-05-07T06:51:48;19.70;;;8.32;;
66970;SDS011;53901;51.466;-2.588;2023-05-07T06:54:13;21.63;;;9.07;;
66970;SDS011;53901;51.466;-2.588;2023-05-07T06:56:39;22.83;;;8.98;;
66970;SDS011;53901;51.466;-2.588;2023-05-07T06:59:04;22.83;;;8.10;;
66970;SDS011;53901;51.466;-2.588;2023-05-07T07:01:30;18.83;;;8.70;;
66970;SDS011;53901;51.466;-2.588;2023-05-07T07:03:55;23.23;;;9.02;;
66970;SDS011;53901;51.466;-2.588;2023-05-07T07:06:21;19.55;;;8.60;;
66970;SDS011;53901;51.466;-2.588;2023-05-07T07:08:47;22.77;;;9.02;;
66970;SDS011;53901;51.466;-2.588;2023-05-07T07:11:12;16.45;;;6.88;;
66970;SDS011;53901;51.466;-2.588;2023-05-07T07:13:37;19.50;;;7.30;;
66970;SDS011;53901;51.466;-2.588;2023-05-07T07:16:03;15.00;;;6.95;;
66970;SDS011;53901;51.466;-2.588;2023-05-07T07:18:28;14.32;;;6.75;;
66970;SDS011;53901;51.466;-2.588;2023-05-07T07:20:54;19.23;;;8.68;;
66970;SDS011;53901;51.466;-2.588;2023-05-07T07:23:19;22.00;;;7.35;;
66970;SDS011;53901;51.466;-2.588;2023-05-07T07:25:45;17.40;;;6.82;;
66970;SDS011;53901;51.466;-2.588;2023-05-07T07:28:10;15.45;;;6.60;;
66970;SDS011;53901;51.466;-2.588;2023-05-07T07:30:36;15.13;;;6.38;;
66970;SDS011;53901;51.466;-2.588;2023-05-07T07:33:02;15.93;;;6.03;;
66970;SDS011;53901;51.466;-2.588;2023-05-07T07:35:34;16.05;;;6.53;;
66970;SDS011;53901;51.466;-2.588;2023-05-07T07:37:59;15.60;;;5.93;;
66970;SDS011;53901;51.466;-2.588;2023-05-07T07:40:26;11.38;;;5.45;;
66970;SDS011;53901;51.466;-2.588;2023-05-07T07:42:52;12.57;;;5.10;;
66970;SDS011;53901;51.466;-2.588;2023-05-07T07:45:18;13.63;;;5.45;;
66970;SDS011;53901;51.466;-2.588;2023-05-07T07:47:43;16.38;;;6.05;;
66970;SDS011;53901;51.466;-2.588;2023-05-07T07:50:09;15.70;;;6.28;;
66970;SDS011;53901;51.466;-2.588;2023-05-07T07:52:35;14.02;;;6.10;;
66970;SDS011;53901;51.466;-2.588;2023-05-07T07:55:00;13.55;;;5.88;;
66970;SDS011;53901;51.466;-2.588;2023-05-07T07:57:26;9.25;;;5.00;;
66970;SDS011;53901;51.466;-2.588;2023-05-07T07:59:51;13.57;;;5.43;;
66970;SDS011;53901;51.466;-2.588;2023-05-07T08:02:17;15.15;;;5.43;;
66970;SDS011;53901;51.466;-2.588;2023-05-07T08:04:42;15.23;;;6.15;;
66970;SDS011;53901;51.466;-2.588;2023-05-07T08:07:10;10.63;;;5.05;;
66970;SDS011;53901;51.466;-2.588;2023-05-07T08:09:39;13.45;;;5.38;;
66970;SDS011;53901;51.466;-2.588;2023-05-07T08:12:05;9.23;;;4.35;;
66970;SDS011;53901;51.466;-2.588;2023-05-07T08:14:31;11.13;;;4.25;;
66970;SDS011;53901;51.466;-2.588;2023-05-07T08:16:57;12.90;;;4.60;;
66970;SDS011;53901;51.466;-2.588;2023-05-07T08:19:22;12.45;;;4.35;;
66970;SDS011;53901;51.466;-2.588;2023-05-07T08:21:48;13.02;;;3.47;;
66970;SDS011;53901;51.466;-2.588;2023-05-07T08:24:14;8.60;;;3.08;;
66970;SDS011;53901;51.466;-2.588;2023-05-07T08:26:39;14.98;;;3.35;;
66970;SDS011;53901;51.466;-2.588;2023-05-07T08:29:05;9.55;;;2.75;;
66970;SDS011;53901;51.466;-2.588;2023-05-07T08:31:31;13.38;;;2.85;;
66970;SDS011;53901;51.466;-2.588;2023-05-07T08:33:57;10.43;;;2.60;;
66970;SDS011;53901;51.466;-2.588;2023-05-07T08:36:22;10.60;;;2.50;;
66970;SDS011;53901;51.466;-2.588;2023-05-07T08:38:48;10.43;;;2.97;;
66970;SDS011;53901;51.466;-2.588;2023-05-07T08:41:14;8.52;;;2.25;;
66970;SDS011;53901;51.466;-2.588;2023-05-07T08:43:40;9.07;;;2.50;;
66970;SDS011;53901;51.466;-2.588;2023-05-07T08:46:06;8.75;;;2.50;;
66970;SDS011;53901;51.466;-2.588;2023-05-07T08:48:34;7.70;;;2.42;;
66970;SDS011;53901;51.466;-2.588;2023-05-07T08:50:59;9.00;;;2.90;;
66970;SDS011;53901;51.466;-2.588;2023-05-07T08:53:25;5.80;;;2.22;;
66970;SDS011;53901;51.466;-2.588;2023-05-07T08:55:50;6.97;;;2.47;;
66970;SDS011;53901;51.466;-2.588;2023-05-07T08:58:16;6.70;;;2.60;;
66970;SDS011;53901;51.466;-2.588;2023-05-07T09:00:41;11.00;;;2.55;;
66970;SDS011;53901;51.466;-2.588;2023-05-07T09:03:07;9.73;;;2.58;;
66970;SDS011;53901;51.466;-2.588;2023-05-07T09:05:32;6.65;;;2.40;;
66970;SDS011;53901;51.466;-2.588;2023-05-07T09:08:05;9.70;;;2.70;;
66970;SDS011;53901;51.466;-2.588;2023-05-07T09:10:32;5.68;;;2.50;;
66970;SDS011;53901;51.466;-2.588;2023-05-07T09:12:58;6.95;;;2.58;;
66970;SDS011;53901;51.466;-2.588;2023-05-07T09:15:24;9.93;;;2.60;;
66970;SDS011;53901;51.466;-2.588;2023-05-07T09:17:50;9.32;;;2.88;;
66970;SDS011;53901;51.466;-2.588;2023-05-07T09:20:15;6.97;;;2.38;;
66970;SDS011;53901;51.466;-2.588;2023-05-07T09:22:41;5.45;;;2.38;;
66970;SDS011;53901;51.466;-2.588;2023-05-07T09:25:06;6.55;;;2.63;;
66970;SDS011;53901;51.466;-2.588;2023-05-07T09:27:33;10.93;;;2.40;;
66970;SDS011;53901;51.466;-2.588;2023-05-07T09:29:58;7.70;;;2.47;;
66970;SDS011;53901;51.466;-2.588;2023-05-07T09:32:24;12.23;;;3.00;;
66970;SDS011;53901;51.466;-2.588;2023-05-07T09:34:50;6.05;;;2.50;;
66970;SDS011;53901;51.466;-2.588;2023-05-07T09:37:15;10.73;;;3.22;;
66970;SDS011;53901;51.466;-2.588;2023-05-07T09:39:41;13.38;;;3.38;;
66970;SDS011;53901;51.466;-2.588;2023-05-07T09:42:07;13.45;;;3.20;;
66970;SDS011;53901;51.466;-2.588;2023-05-07T09:44:34;11.68;;;3.78;;
66970;SDS011;53901;51.466;-2.588;2023-05-07T09:47:00;15.25;;;3.42;;
66970;SDS011;53901;51.466;-2.588;2023-05-07T09:49:27;11.57;;;4.32;;
66970;SDS011;53901;51.466;-2.588;2023-05-07T09:51:57;10.90;;;3.85;;
66970;SDS011;53901;51.466;-2.588;2023-05-07T09:54:25;10.00;;;3.33;;
66970;SDS011;53901;51.466;-2.588;2023-05-07T09:56:51;9.15;;;3.72;;
66970;SDS011;53901;51.466;-2.588;2023-05-07T09:59:17;12.57;;;4.72;;
66970;SDS011;53901;51.466;-2.588;2023-05-07T10:01:43;12.15;;;5.40;;
66970;SDS011;53901;51.466;-2.588;2023-05-07T10:04:12;11.15;;;4.50;;
66970;SDS011;53901;51.466;-2.588;2023-05-07T10:06:39;13.38;;;4.90;;
66970;SDS011;53901;51.466;-2.588;2023-05-07T10:09:05;8.82;;;3.83;;
66970;SDS011;53901;51.466;-2.588;2023-05-07T10:11:34;11.18;;;4.65;;
66970;SDS011;53901;51.466;-2.588;2023-05-07T10:14:00;9.25;;;4.18;;
66970;SDS011;53901;51.466;-2.588;2023-05-07T10:16:27;7.55;;;3.72;;
66970;SDS011;53901;51.466;-2.588;2023-05-07T10:18:55;7.78;;;3.30;;
66970;SDS011;53901;51.466;-2.588;2023-05-07T10:21:22;8.25;;;2.83;;
66970;SDS011;53901;51.466;-2.588;2023-05-07T10:23:55;10.13;;;2.95;;
66970;SDS011;53901;51.466;-2.588;2023-05-07T10:26:25;6.70;;;2.40;;
66970;SDS011;53901;51.466;-2.588;2023-05-07T10:28:54;10.55;;;3.55;;
66970;SDS011;53901;51.466;-2.588;2023-05-07T10:34:29;6.72;;;2.70;;
66970;SDS011;53901;51.466;-2.588;2023-05-07T10:36:59;5.68;;;2.22;;
66970;SDS011;53901;51.466;-2.588;2023-05-07T10:39:24;7.85;;;2.85;;
66970;SDS011;53901;51.466;-2.588;2023-05-07T10:41:50;6.55;;;2.60;;
66970;SDS011;53901;51.466;-2.588;2023-05-07T10:44:25;8.57;;;3.95;;
66970;SDS011;53901;51.466;-2.588;2023-05-07T10:49:32;9.70;;;4.15;;
66970;SDS011;53901;51.466;-2.588;2023-05-07T10:52:14;10.32;;;4.63;;
66970;SDS011;53901;51.466;-2.588;2023-05-07T10:54:41;8.10;;;3.40;;
66970;SDS011;53901;51.466;-2.588;2023-05-07T10:59:58;12.95;;;4.45;;
66970;SDS011;53901;51.466;-2.588;2023-05-07T11:02:23;7.97;;;3.78;;
66970;SDS011;53901;51.466;-2.588;2023-05-07T11:05:23;8.18;;;3.60;;
66970;SDS011;53901;51.466;-2.588;2023-05-07T11:07:58;8.40;;;3.90;;
66970;SDS011;53901;51.466;-2.588;2023-05-07T11:16:20;7.97;;;3.63;;
66970;SDS011;53901;51.466;-2.588;2023-05-07T11:18:50;7.72;;;3.55;;
66970;SDS011;53901;51.466;-2.588;2023-05-07T11:24:02;9.57;;;3.70;;
66970;SDS011;53901;51.466;-2.588;2023-05-07T11:26:29;7.28;;;3.20;;
66970;SDS011;53901;51.466;-2.588;2023-05-07T11:28:56;8.18;;;3.40;;
66970;SDS011;53901;51.466;-2.588;2023-05-07T11:31:23;6.18;;;3.65;;
66970;SDS011;53901;51.466;-2.588;2023-05-07T11:33:51;7.22;;;3.20;;
66970;SDS011;53901;51.466;-2.588;2023-05-07T11:36:16;6.82;;;3.35;;
66970;SDS011;53901;51.466;-2.588;2023-05-07T11:38:43;8.88;;;3.70;;
66970;SDS011;53901;51.466;-2.588;2023-05-07T11:41:08;11.93;;;4.15;;
66970;SDS011;53901;51.466;-2.588;2023-05-07T11:43:34;8.13;;;4.15;;
66970;SDS011;53901;51.466;-2.588;2023-05-07T11:46:10;8.63;;;3.67;;
66970;SDS011;53901;51.466;-2.588;2023-05-07T11:48:36;9.27;;;4.43;;
66970;SDS011;53901;51.466;-2.588;2023-05-07T11:51:02;9.43;;;3.80;;
66970;SDS011;53901;51.466;-2.588;2023-05-07T11:53:39;8.07;;;4.10;;
66970;SDS011;53901;51.466;-2.588;2023-05-07T11:56:09;8.55;;;4.43;;
66970;SDS011;53901;51.466;-2.588;2023-05-07T11:58:39;9.43;;;4.25;;
66970;SDS011;53901;51.466;-2.588;2023-05-07T12:01:07;9.27;;;4.75;;
66970;SDS011;53901;51.466;-2.588;2023-05-07T12:03:33;9.73;;;4.93;;
66970;SDS011;53901;51.466;-2.588;2023-05-07T12:05:59;13.32;;;6.53;;
66970;SDS011;53901;51.466;-2.588;2023-05-07T12:08:25;13.32;;;6.25;;
66970;SDS011;53901;51.466;-2.588;2023-05-07T12:10:50;14.20;;;6.78;;
66970;SDS011;53901;51.466;-2.588;2023-05-07T12:13:20;14.60;;;7.47;;
66970;SDS011;53901;51.466;-2.588;2023-05-07T12:15:51;11.40;;;7.63;;
66970;SDS011;53901;51.466;-2.588;2023-05-07T12:18:17;13.25;;;7.00;;
66970;SDS011;53901;51.466;-2.588;2023-05-07T12:20:42;13.35;;;7.70;;
66970;SDS011;53901;51.466;-2.588;2023-05-07T12:23:08;11.32;;;7.38;;
66970;SDS011;53901;51.466;-2.588;2023-05-07T12:25:40;15.85;;;7.30;;
66970;SDS011;53901;51.466;-2.588;2023-05-07T12:28:13;10.98;;;7.35;;
66970;SDS011;53901;51.466;-2.588;2023-05-07T12:30:40;13.38;;;8.57;;
66970;SDS011;53901;51.466;-2.588;2023-05-07T12:33:06;13.98;;;8.13;;
66970;SDS011;53901;51.466;-2.588;2023-05-07T12:35:32;14.68;;;8.82;;
66970;SDS011;53901;51.466;-2.588;2023-05-07T12:38:01;15.43;;;8.82;;
66970;SDS011;53901;51.466;-2.588;2023-05-07T12:40:48;16.13;;;9.98;;
66970;SDS011;53901;51.466;-2.588;2023-05-07T12:45:45;16.30;;;9.18;;
66970;SDS011;53901;51.466;-2.588;2023-05-07T12:48:12;14.32;;;7.00;;
66970;SDS011;53901;51.466;-2.588;2023-05-07T12:50:37;14.85;;;7.00;;
66970;SDS011;53901;51.466;-2.588;2023-05-07T12:53:05;11.43;;;5.60;;
66970;SDS011;53901;51.466;-2.588;2023-05-07T12:55:34;10.18;;;4.75;;
66970;SDS011;53901;51.466;-2.588;2023-05-07T12:58:18;10.55;;;4.32;;
66970;SDS011;53901;51.466;-2.588;2023-05-07T13:00:54;10.20;;;4.30;;
66970;SDS011;53901;51.466;-2.588;2023-05-07T13:05:49;10.65;;;4.63;;
66970;SDS011;53901;51.466;-2.588;2023-05-07T13:10:50;9.18;;;3.70;;
66970;SDS011;53901;51.466;-2.588;2023-05-07T13:13:16;11.70;;;3.80;;
66970;SDS011;53901;51.466;-2.588;2023-05-07T13:15:41;10.43;;;3.25;;
66970;SDS011;53901;51.466;-2.588;2023-05-07T13:18:07;7.63;;;3.25;;
66970;SDS011;53901;51.466;-2.588;2023-05-07T13:20:32;11.25;;;3.33;;
66970;SDS011;53901;51.466;-2.588;2023-05-07T13:22:57;11.35;;;3.40;;
66970;SDS011;53901;51.466;-2.588;2023-05-07T13:25:23;9.43;;;2.80;;
66970;SDS011;53901;51.466;-2.588;2023-05-07T13:27:48;10.25;;;2.45;;
66970;SDS011;53901;51.466;-2.588;2023-05-07T13:30:13;9.35;;;2.60;;
66970;SDS011;53901;51.466;-2.588;2023-05-07T13:32:39;9.05;;;2.72;;
66970;SDS011;53901;51.466;-2.588;2023-05-07T13:35:04;12.80;;;3.10;;
66970;SDS011;53901;51.466;-2.588;2023-05-07T13:37:31;8.95;;;2.60;;
66970;SDS011;53901;51.466;-2.588;2023-05-07T13:39:56;7.75;;;2.50;;
66970;SDS011;53901;51.466;-2.588;2023-05-07T13:42:21;7.75;;;2.00;;
66970;SDS011;53901;51.466;-2.588;2023-05-07T13:44:47;7.97;;;2.10;;
66970;SDS011;53901;51.466;-2.588;2023-05-07T13:47:12;6.68;;;1.98;;
66970;SDS011;53901;51.466;-2.588;2023-05-07T13:49:38;7.10;;;2.13;;
66970;SDS011;53901;51.466;-2.588;2023-05-07T13:52:03;7.85;;;1.90;;
66970;SDS011;53901;51.466;-2.588;2023-05-07T13:54:29;4.57;;;1.70;;
66970;SDS011;53901;51.466;-2.588;2023-05-07T13:56:54;5.65;;;1.70;;
66970;SDS011;53901;51.466;-2.588;2023-05-07T13:59:20;5.13;;;1.98;;
66970;SDS011;53901;51.466;-2.588;2023-05-07T14:01:45;8.55;;;2.17;;
66970;SDS011;53901;51.466;-2.588;2023-05-07T14:04:11;7.22;;;1.88;;
66970;SDS011;53901;51.466;-2.588;2023-05-07T14:06:36;5.13;;;1.85;;
66970;SDS011;53901;51.466;-2.588;2023-05-07T14:09:02;5.45;;;1.90;;
66970;SDS011;53901;51.466;-2.588;2023-05-07T14:11:27;5.43;;;1.80;;
66970;SDS011;53901;51.466;-2.588;2023-05-07T14:13:53;6.55;;;1.95;;
66970;SDS011;53901;51.466;-2.588;2023-05-07T14:16:18;6.88;;;2.00;;
66970;SDS011;53901;51.466;-2.588;2023-05-07T14:18:43;4.88;;;2.15;;
66970;SDS011;53901;51.466;-2.588;2023-05-07T14:21:09;7.13;;;1.85;;
66970;SDS011;53901;51.466;-2.588;2023-05-07T14:23:35;6.28;;;1.80;;
66970;SDS011;53901;51.466;-2.588;2023-05-07T14:26:00;6.95;;;1.88;;
66970;SDS011;53901;51.466;-2.588;2023-05-07T14:28:26;4.65;;;1.67;;
66970;SDS011;53901;51.466;-2.588;2023-05-07T14:30:51;6.88;;;1.90;;
66970;SDS011;53901;51.466;-2.588;2023-05-07T14:33:17;7.07;;;1.60;;
66970;SDS011;53901;51.466;-2.588;2023-05-07T14:35:42;5.47;;;1.77;;
66970;SDS011;53901;51.466;-2.588;2023-05-07T14:38:12;6.80;;;1.80;;